Time;durP1;ratioP1;P1;durP2;ratioP2;P2;SDS_P1;SDS_P2;PMS_P1;PMS_P2;Temp;Humidity;BMP_temperature;BMP_pressure;BME280_temperature;BME280_humidity;BME280_pressure;Samples;Min_cycle;Max_cycle;Signal;HPM_P1;HPM_P2
2021/04/24 00:02:54;;;;;;;1.13;0.83;;;12.50;99.90;;;;;;20616258;28;20599;-78
2021/04/24 00:12:58;;;;;;;1.70;0.80;;;12.30;99.90;;;;;;20615364;28;20203;-79
2021/04/24 00:23:02;;;;;;;1.17;1.07;;;12.30;99.90;;;;;;20614871;28;20322;-79
2021/04/24 00:33:06;;;;;;;2.60;1.13;;;12.50;99.90;;;;;;20613071;28;20231;-82
2021/04/24 00:43:10;;;;;;;2.00;0.87;;;12.30;99.90;;;;;;20611210;28;20611;-82
2021/04/24 00:53:14;;;;;;;1.67;0.83;;;12.30;99.90;;;;;;20562017;28;20204;-80
2021/04/24 01:03:19;;;;;;;1.30;0.40;;;12.20;99.90;;;;;;20593872;28;20542;-83
2021/04/24 01:13:26;;;;;;;0.77;0.77;;;11.90;99.90;;;;;;20667785;28;20207;-78
2021/04/24 01:23:29;;;;;;;0.40;0.40;;;11.60;99.90;;;;;;20619621;28;20227;-83
2021/04/24 01:33:32;;;;;;;0.47;0.47;;;11.30;99.90;;;;;;20615098;28;20223;-83
2021/04/24 01:43:36;;;;;;;0.50;0.40;;;11.10;99.90;;;;;;20613890;28;20261;-82
2021/04/24 01:53:39;;;;;;;1.07;0.57;;;10.80;99.90;;;;;;20612440;28;20544;-82
2021/04/24 02:03:43;;;;;;;0.20;0.17;;;10.70;99.90;;;;;;20611075;28;20301;-82
2021/04/24 02:13:46;;;;;;;0.23;0.23;;;10.80;99.90;;;;;;20610930;28;20198;-82
2021/04/24 02:23:50;;;;;;;0.30;0.30;;;10.80;99.90;;;;;;20616844;28;20191;-80
2021/04/24 02:33:54;;;;;;;0.50;0.50;;;10.30;99.90;;;;;;20623111;28;20227;-80
2021/04/24 02:43:58;;;;;;;0.40;0.30;;;10.10;99.90;;;;;;20624560;28;20199;-79
2021/04/24 02:54:01;;;;;;;0.20;0.20;;;10.60;99.90;;;;;;20624802;28;20595;-79
2021/04/24 03:04:05;;;;;;;0.70;0.67;;;10.60;99.90;;;;;;20622789;28;20274;-79
2021/04/24 03:14:08;;;;;;;0.50;0.30;;;10.70;99.90;;;;;;20619989;28;20273;-80
2021/04/24 03:24:12;;;;;;;0.57;0.57;;;10.90;99.90;;;;;;20636770;28;20619;-81
2021/04/24 03:34:15;;;;;;;0.80;0.80;;;11.00;99.90;;;;;;20620763;28;20231;-81
2021/04/24 03:44:19;;;;;;;0.30;0.30;;;11.00;99.90;;;;;;20622505;28;20206;-82
2021/04/24 03:54:23;;;;;;;0.80;0.70;;;10.40;99.90;;;;;;20619973;28;20226;-81
2021/04/24 04:04:26;;;;;;;0.80;0.70;;;10.40;99.90;;;;;;20618239;28;20681;-76
2021/04/24 04:14:29;;;;;;;0.57;0.50;;;10.80;99.90;;;;;;20618320;28;20321;-79
2021/04/24 04:24:34;;;;;;;0.30;0.30;;;10.70;99.90;;;;;;20632170;28;20231;-79
2021/04/24 04:34:37;;;;;;;0.63;0.63;;;10.30;99.90;;;;;;20615514;28;20277;-80
2021/04/24 04:44:41;;;;;;;0.20;0.20;;;10.30;99.90;;;;;;20616699;28;20251;-86
2021/04/24 04:54:44;;;;;;;0.57;0.57;;;10.70;99.90;;;;;;20618472;28;20220;-81
2021/04/24 05:04:47;;;;;;;0.80;0.80;;;11.00;99.90;;;;;;20616592;28;20210;-83
2021/04/24 05:14:50;;;;;;;0.33;0.33;;;10.70;99.90;;;;;;20609658;28;20231;-79
2021/04/24 05:24:53;;;;;;;0.73;0.73;;;11.00;99.90;;;;;;20612546;28;20218;-75
2021/04/24 05:34:56;;;;;;;0.40;0.40;;;11.10;99.90;;;;;;20610657;28;20234;-78
2021/04/24 05:45:00;;;;;;;1.20;0.90;;;11.40;99.90;;;;;;20613239;28;20210;-78
2021/04/24 05:55:04;;;;;;;0.33;0.33;;;11.60;99.90;;;;;;20614729;28;20237;-76
2021/04/24 06:05:09;;;;;;;0.97;0.67;;;11.80;99.90;;;;;;20610465;28;20218;-76
2021/04/24 06:15:13;;;;;;;0.77;0.50;;;12.20;99.90;;;;;;20626330;28;20223;-77
2021/04/24 06:25:18;;;;;;;0.50;0.50;;;12.40;99.90;;;;;;20627537;28;20207;-77
2021/04/24 06:35:21;;;;;;;0.87;0.80;;;12.90;99.90;;;;;;20638923;28;20254;-77
2021/04/24 06:45:25;;;;;;;0.83;0.50;;;13.30;99.90;;;;;;20640415;28;20196;-81
2021/04/24 06:55:27;;;;;;;4.27;0.83;;;13.90;99.90;;;;;;20625531;28;20282;-79
2021/04/24 07:05:31;;;;;;;0.90;0.77;;;14.50;99.90;;;;;;20621986;28;20206;-79
2021/04/24 07:15:34;;;;;;;3.87;1.07;;;14.60;99.90;;;;;;20620832;28;20223;-75
2021/04/24 07:25:50;;;;;;;1.03;0.93;;;14.60;99.90;;;;;;20627334;28;20230;-81
2021/04/24 07:35:53;;;;;;;0.20;0.10;;;14.80;99.90;;;;;;20623145;28;20239;-80
2021/04/24 07:45:57;;;;;;;0.73;0.60;;;15.00;99.90;;;;;;20619034;28;20200;-79
2021/04/24 07:56:00;;;;;;;0.57;0.57;;;15.20;99.90;;;;;;20619758;28;20223;-75
2021/04/24 08:06:04;;;;;;;0.50;0.50;;;15.50;99.90;;;;;;20617873;28;20549;-79
2021/04/24 08:16:17;;;;;;;;;;;;;;;;;;;;;
2021/04/24 08:26:21;;;;;;;0.60;0.60;;;15.50;99.90;;;;;;20611562;28;20541;-73
2021/04/24 08:36:23;;;;;;;0.37;0.37;;;15.60;99.90;;;;;;20611643;28;20676;-78
2021/04/24 08:46:27;;;;;;;2.47;1.10;;;15.80;99.90;;;;;;20611706;28;20200;-77
2021/04/24 08:56:34;;;;;;;1.57;1.17;;;15.90;99.90;;;;;;20606650;28;20234;-72
2021/04/24 09:06:39;;;;;;;1.07;0.97;;;15.90;99.90;;;;;;20609651;28;20628;-77
2021/04/24 09:16:43;;;;;;;0.83;0.83;;;16.00;99.90;;;;;;20612077;28;20704;-77
2021/04/24 09:26:47;;;;;;;0.70;0.70;;;16.30;99.90;;;;;;20620914;28;20693;-80
2021/04/24 09:36:56;;;;;;;2.23;1.07;;;16.70;99.90;;;;;;20622998;23;20243;-78
2021/04/24 09:47:00;;;;;;;2.03;1.20;;;16.70;99.90;;;;;;20610223;28;20841;-80
2021/04/24 09:57:08;;;;;;;0.50;0.50;;;17.00;99.90;;;;;;20609953;28;20227;-73
2021/04/24 10:07:12;;;;;;;7.00;1.80;;;16.80;99.90;;;;;;20608899;28;20203;-77
2021/04/24 10:17:17;;;;;;;0.43;0.43;;;17.30;99.90;;;;;;20608399;28;20331;-74
2021/04/24 10:27:25;;;;;;;0.73;0.73;;;17.30;99.90;;;;;;20607514;28;20202;-76
2021/04/24 10:37:27;;;;;;;0.43;0.43;;;17.80;99.90;;;;;;20608229;28;20802;-79
2021/04/24 10:47:46;;;;;;;10.63;1.20;;;18.00;99.90;;;;;;20616082;28;20275;-76
2021/04/24 10:57:50;;;;;;;0.97;0.87;;;18.00;99.90;;;;;;20623459;28;20235;-84
2021/04/24 11:08:26;;;;;;;0.20;0.20;;;18.40;99.90;;;;;;20618835;28;20210;-74
2021/04/24 11:18:43;;;;;;;1.57;1.47;;;19.30;99.90;;;;;;20609483;28;20271;-77
2021/04/24 11:29:08;;;;;;;2.33;1.57;;;20.10;99.90;;;;;;20617415;28;20561;-70
2021/04/24 11:39:11;;;;;;;0.50;0.50;;;20.50;99.90;;;;;;20616066;28;20684;-72
2021/04/24 11:49:21;;;;;;;1.30;1.13;;;20.80;99.90;;;;;;20616637;28;20274;-70
2021/04/24 11:59:26;;;;;;;0.73;0.30;;;21.60;99.90;;;;;;20615534;28;20307;-74
2021/04/24 12:09:30;;;;;;;1.17;1.13;;;21.40;99.90;;;;;;20613727;28;20310;-79
2021/04/24 12:19:36;;;;;;;0.60;0.40;;;21.80;99.90;;;;;;20613715;28;21052;-74
2021/04/24 12:29:49;;;;;;;0.57;0.57;;;21.70;99.90;;;;;;20611472;28;20511;-72
2021/04/24 12:40:07;;;;;;;0.93;0.50;;;22.10;99.90;;;;;;20609106;28;20282;-73
2021/04/24 12:50:18;;;;;;;0.50;0.50;;;22.00;99.90;;;;;;20625876;28;20270;-75
2021/04/24 13:00:27;;;;;;;0.73;0.50;;;22.50;99.90;;;;;;20612660;28;20223;-75
2021/04/24 13:10:31;;;;;;;2.20;1.27;;;23.00;99.90;;;;;;20609914;28;20629;-73
2021/04/24 13:20:34;;;;;;;1.77;1.40;;;23.30;99.90;;;;;;20612234;28;20227;-74
2021/04/24 13:30:42;;;;;;;0.83;0.67;;;23.70;99.90;;;;;;20609869;28;20228;-72
2021/04/24 13:40:46;;;;;;;1.63;1.10;;;23.50;99.90;;;;;;20608627;28;20227;-73
2021/04/24 13:50:52;;;;;;;1.07;0.87;;;23.90;99.90;;;;;;20609871;28;20497;-75
2021/04/24 14:00:55;;;;;;;5.30;1.10;;;24.20;99.90;;;;;;20591555;28;20226;-77
2021/04/24 14:11:02;;;;;;;0.60;0.60;;;25.30;99.90;;;;;;20607738;28;20542;-74
2021/04/24 14:21:05;;;;;;;1.08;0.55;;;25.80;99.90;;;;;;20616376;28;20215;-75
2021/04/24 14:31:11;;;;;;;1.35;1.20;;;25.40;99.90;;;;;;20621426;28;20689;-76
2021/04/24 14:41:14;;;;;;;1.20;0.68;;;25.60;99.90;;;;;;20619211;28;20251;-72
2021/04/24 14:51:19;;;;;;;0.50;0.50;;;25.90;99.90;;;;;;20604163;28;20540;-80
2021/04/24 15:01:23;;;;;;;0.80;0.80;;;25.30;99.90;;;;;;20619764;28;20270;-80
2021/04/24 15:11:29;;;;;;;0.93;0.87;;;25.10;99.90;;;;;;20602126;28;20338;-80
2021/04/24 15:21:40;;;;;;;6.47;1.13;;;24.90;99.90;;;;;;20616296;28;20224;-77
2021/04/24 15:31:45;;;;;;;0.70;0.57;;;25.40;99.90;;;;;;20616921;28;20713;-80
2021/04/24 15:41:52;;;;;;;0.70;0.57;;;24.30;99.90;;;;;;20600987;28;20667;-78
2021/04/24 15:51:58;;;;;;;0.80;0.77;;;22.90;99.90;;;;;;20616740;28;20326;-79
2021/04/24 16:02:17;;;;;;;;;;;;;;;;;;;;;
2021/04/24 16:12:23;;;;;;;0.50;0.50;;;19.90;99.90;;;;;;20622264;28;20215;-83
2021/04/24 16:22:27;;;;;;;0.20;0.20;;;19.90;99.90;;;;;;20616908;28;20301;-86
2021/04/24 16:32:34;;;;;;;2.67;0.77;;;19.30;99.90;;;;;;20614259;28;20219;-85
2021/04/24 16:42:37;;;;;;;0.47;0.47;;;19.10;99.90;;;;;;20632842;28;20760;-78
2021/04/24 16:52:43;;;;;;;0.80;0.47;;;18.90;99.90;;;;;;20619724;28;20206;-82
2021/04/24 17:02:47;;;;;;;1.20;0.80;;;18.60;99.90;;;;;;20619946;28;20223;-72
2021/04/24 17:12:54;;;;;;;0.80;0.80;;;18.50;99.90;;;;;;20618977;28;20383;-82
2021/04/24 17:22:57;;;;;;;0.73;0.70;;;18.20;99.90;;;;;;20629166;28;20635;-81
2021/04/24 17:33:01;;;;;;;0.80;0.47;;;17.80;99.90;;;;;;20611760;28;20227;-83
2021/04/24 17:43:04;;;;;;;1.23;1.03;;;17.60;99.90;;;;;;20615304;28;20231;-82
2021/04/24 17:53:07;;;;;;;1.63;1.30;;;17.40;99.90;;;;;;20599053;28;20245;-73
2021/04/24 18:03:10;;;;;;;0.83;0.70;;;17.30;99.90;;;;;;20623442;28;20284;-77
2021/04/24 18:13:14;;;;;;;0.53;0.53;;;17.20;99.90;;;;;;20622639;28;20204;-83
2021/04/24 18:23:17;;;;;;;0.53;0.50;;;17.00;99.90;;;;;;20618810;28;20694;-79
2021/04/24 18:33:23;;;;;;;1.50;1.40;;;17.10;99.90;;;;;;20618097;28;20258;-75
2021/04/24 18:43:26;;;;;;;1.37;1.27;;;17.00;99.90;;;;;;20620163;28;20219;-80
2021/04/24 18:53:32;;;;;;;0.50;0.50;;;16.80;99.90;;;;;;20637079;28;20301;-83
2021/04/24 19:03:35;;;;;;;0.70;0.60;;;16.80;99.90;;;;;;20605577;28;20236;-78
2021/04/24 19:13:39;;;;;;;0.63;0.63;;;16.40;99.90;;;;;;20619175;28;20215;-80
2021/04/24 19:23:42;;;;;;;1.10;0.93;;;16.60;99.90;;;;;;20621661;28;20662;-83
2021/04/24 19:33:48;;;;;;;0.57;0.50;;;16.60;99.90;;;;;;20616639;28;20650;-77
2021/04/24 19:43:55;;;;;;;1.13;0.73;;;16.50;99.90;;;;;;20617926;28;20693;-77
2021/04/24 19:54:01;;;;;;;1.03;1.03;;;16.70;99.90;;;;;;20616359;28;20203;-77
2021/04/24 20:04:07;;;;;;;5.90;1.17;;;16.70;99.90;;;;;;20615717;28;20238;-79
2021/04/24 20:14:20;;;;;;;6.50;1.20;;;16.50;99.90;;;;;;20633809;28;20770;-79
2021/04/24 20:24:23;;;;;;;1.80;0.87;;;16.40;99.90;;;;;;20630967;28;20623;-79
2021/04/24 20:34:28;;;;;;;2.57;2.37;;;16.40;99.90;;;;;;20613343;28;20223;-81
2021/04/24 20:44:31;;;;;;;0.83;0.63;;;16.20;99.90;;;;;;20612509;28;20673;-76
2021/04/24 20:54:35;;;;;;;1.47;1.37;;;16.00;99.90;;;;;;20610168;28;20220;-78
2021/04/24 21:04:39;;;;;;;0.50;0.50;;;16.00;99.90;;;;;;20609577;28;20365;-77
2021/04/24 21:14:43;;;;;;;0.30;0.20;;;16.00;99.90;;;;;;20610806;28;20628;-76
2021/04/24 21:24:46;;;;;;;0.83;0.63;;;15.80;99.90;;;;;;20610888;28;20220;-77
2021/04/24 21:34:50;;;;;;;0.30;0.30;;;15.90;99.90;;;;;;20608803;28;20234;-82
2021/04/24 21:44:53;;;;;;;1.00;0.90;;;15.90;99.90;;;;;;20593883;28;20230;-76
2021/04/24 21:54:57;;;;;;;0.67;0.67;;;15.80;99.90;;;;;;20609302;28;20192;-77
2021/04/24 22:05:00;;;;;;;0.50;0.50;;;15.80;99.90;;;;;;20607866;28;20223;-82
2021/04/24 22:15:10;;;;;;;0.60;0.60;;;16.00;99.90;;;;;;20609683;28;20214;-81
2021/04/24 22:25:13;;;;;;;0.87;0.80;;;15.80;99.90;;;;;;20610296;28;20697;-81
2021/04/24 22:35:20;;;;;;;1.80;0.90;;;15.70;99.90;;;;;;20593061;28;20251;-80
2021/04/24 22:45:23;;;;;;;0.53;0.53;;;15.30;99.90;;;;;;20626984;28;20235;-81
2021/04/24 22:55:30;;;;;;;0.70;0.40;;;15.10;99.90;;;;;;20627829;28;20207;-82
2021/04/24 23:05:33;;;;;;;0.20;0.13;;;14.90;99.90;;;;;;20632784;28;20254;-84
2021/04/24 23:15:38;;;;;;;1.30;0.83;;;14.90;99.90;;;;;;20648154;28;20204;-82
2021/04/24 23:25:41;;;;;;;4.23;0.90;;;14.80;99.90;;;;;;20639088;28;20254;-78
2021/04/24 23:35:44;;;;;;;0.77;0.77;;;14.90;99.90;;;;;;20638973;28;20306;-78
2021/04/24 23:45:47;;;;;;;2.23;1.77;;;14.70;99.90;;;;;;20635770;28;20203;-77
2021/04/24 23:55:51;;;;;;;2.50;1.13;;;14.70;99.90;;;;;;20618396;28;20234;-75
